Time;durP1;ratioP1;P1;durP2;ratioP2;P2;SDS_P1;SDS_P2;PMS_P1;PMS_P2;Temp;Humidity;BMP_temperature;BMP_pressure;BME280_temperature;BME280_humidity;BME280_pressure;Samples;Min_cycle;Max_cycle;Signal;HPM_P1;HPM_P2
2021/04/03 00:02:09;;;;;;;1.40;1.30;;;7.90;73.20;;;;;;5005576;28;20729;-69
2021/04/03 00:04:35;;;;;;;3.00;1.80;;;7.90;73.20;;;;;;4993778;28;20224;-69
2021/04/03 00:07:02;;;;;;;1.60;1.50;;;7.90;73.70;;;;;;5020061;28;20468;-69
2021/04/03 00:09:27;;;;;;;2.50;1.83;;;7.90;73.70;;;;;;4994789;28;20495;-69
2021/04/03 00:11:53;;;;;;;0.97;0.87;;;7.90;73.20;;;;;;4988229;28;20490;-68
2021/04/03 00:14:19;;;;;;;2.03;1.30;;;7.80;72.80;;;;;;4993660;28;20227;-67
2021/04/03 00:16:44;;;;;;;2.43;1.50;;;7.80;73.20;;;;;;4994939;28;20705;-68
2021/04/03 00:19:10;;;;;;;4.90;2.00;;;7.90;73.30;;;;;;5020320;28;20227;-68
2021/04/03 00:21:36;;;;;;;2.17;1.80;;;7.80;72.70;;;;;;5016961;28;20208;-69
2021/04/03 00:24:02;;;;;;;2.20;1.37;;;7.80;73.20;;;;;;5038193;28;20219;-68
2021/04/03 00:26:27;;;;;;;1.83;1.30;;;7.80;73.40;;;;;;4995752;28;20690;-67
2021/04/03 00:28:53;;;;;;;1.43;1.30;;;7.90;73.60;;;;;;4988464;28;20217;-67
2021/04/03 00:31:20;;;;;;;3.23;1.13;;;7.90;73.30;;;;;;5001624;28;20592;-67
2021/04/03 00:33:46;;;;;;;1.00;0.73;;;7.90;73.50;;;;;;5023619;28;20225;-69
2021/04/03 00:36:12;;;;;;;1.67;1.40;;;7.90;73.80;;;;;;5001289;28;20461;-67
2021/04/03 00:38:38;;;;;;;1.90;1.40;;;7.90;73.80;;;;;;5002555;28;20280;-68
2021/04/03 00:41:04;;;;;;;1.97;1.10;;;7.90;73.80;;;;;;4994205;28;20457;-68
2021/04/03 00:43:30;;;;;;;1.70;1.50;;;7.90;73.70;;;;;;5004477;28;20279;-67
2021/04/03 00:45:55;;;;;;;5.50;1.90;;;8.00;74.10;;;;;;4988860;28;20225;-68
2021/04/03 00:48:22;;;;;;;2.00;1.80;;;8.00;74.10;;;;;;4982621;28;20271;-69
2021/04/03 00:50:50;;;;;;;3.10;1.80;;;8.00;74.10;;;;;;5003999;28;20719;-68
2021/04/03 00:53:21;;;;;;;1.40;1.30;;;8.00;74.10;;;;;;5001524;28;20460;-68
2021/04/03 00:55:55;;;;;;;3.10;1.53;;;8.00;74.20;;;;;;5004579;28;20443;-67
2021/04/03 00:58:22;;;;;;;4.53;2.23;;;8.00;74.30;;;;;;5006233;28;20459;-68
2021/04/03 01:00:50;;;;;;;3.17;2.40;;;8.10;74.30;;;;;;4993806;28;20501;-69
2021/04/03 01:03:19;;;;;;;2.43;2.23;;;8.10;74.40;;;;;;4992861;28;20481;-68
2021/04/03 01:05:45;;;;;;;2.63;2.43;;;8.10;74.60;;;;;;4992006;28;20455;-68
2021/04/03 01:08:11;;;;;;;3.97;2.30;;;8.10;74.70;;;;;;4993405;28;20301;-67
2021/04/03 01:10:43;;;;;;;8.23;2.80;;;8.00;74.90;;;;;;5018316;28;20467;-68
2021/04/03 01:13:41;;;;;;;4.07;3.10;;;8.00;75.20;;;;;;5014847;28;20447;-67
2021/04/03 01:16:16;;;;;;;7.70;3.17;;;8.00;75.60;;;;;;5031123;28;20546;-67
2021/04/03 01:19:13;;;;;;;4.17;2.47;;;7.90;75.90;;;;;;5029154;28;20467;-67
2021/04/03 01:22:17;;;;;;;3.47;2.93;;;7.90;76.20;;;;;;5018177;28;20509;-67
2021/04/03 01:25:02;;;;;;;3.83;2.67;;;7.90;76.10;;;;;;5011006;28;20443;-67
2021/04/03 01:27:33;;;;;;;3.80;2.77;;;7.90;76.20;;;;;;5020519;28;20471;-68
2021/04/03 01:30:22;;;;;;;4.27;2.80;;;7.90;76.30;;;;;;5014708;28;20535;-67
2021/04/03 01:33:08;;;;;;;2.67;2.20;;;8.00;76.70;;;;;;5015679;28;20443;-68
2021/04/03 01:36:08;;;;;;;3.90;2.50;;;8.00;76.60;;;;;;5045034;28;20451;-68
2021/04/03 01:38:40;;;;;;;3.33;2.70;;;8.00;76.60;;;;;;5023286;28;20887;-68
2021/04/03 01:41:11;;;;;;;6.53;2.83;;;8.10;76.60;;;;;;4982558;28;20541;-67
2021/04/03 01:43:46;;;;;;;8.07;3.30;;;8.10;76.70;;;;;;5025744;28;20448;-68
2021/04/03 01:46:16;;;;;;;2.73;2.37;;;8.00;76.90;;;;;;4982024;28;20468;-67
2021/04/03 01:48:43;;;;;;;4.20;2.80;;;8.00;77.00;;;;;;5003950;28;20452;-68
2021/04/03 01:51:13;;;;;;;5.17;3.40;;;8.00;77.00;;;;;;5007682;28;20476;-67
2021/04/03 01:53:40;;;;;;;3.50;2.37;;;8.00;77.30;;;;;;4993253;28;20885;-68
2021/04/03 01:56:11;;;;;;;3.37;2.30;;;8.00;77.40;;;;;;5012140;28;21015;-67
2021/04/03 01:58:40;;;;;;;3.77;2.40;;;8.00;77.30;;;;;;5012854;28;20458;-68
2021/04/03 02:01:10;;;;;;;5.13;2.97;;;8.00;77.60;;;;;;4998342;28;20464;-68
2021/04/03 02:03:37;;;;;;;3.27;2.33;;;8.00;77.60;;;;;;4984887;28;20452;-68
2021/04/03 02:06:07;;;;;;;3.47;2.23;;;8.00;77.50;;;;;;4994321;28;20573;-68
2021/04/03 02:09:03;;;;;;;7.40;2.63;;;8.00;77.70;;;;;;5007523;28;20446;-68
2021/04/03 02:11:53;;;;;;;2.40;2.20;;;7.90;77.80;;;;;;5016404;28;20435;-68
2021/04/03 02:14:39;;;;;;;3.50;2.23;;;7.90;78.20;;;;;;5007153;28;20486;-68
2021/04/03 02:17:08;;;;;;;4.70;2.60;;;7.90;77.90;;;;;;5030117;28;21007;-67
2021/04/03 02:19:38;;;;;;;7.83;3.20;;;7.90;78.10;;;;;;4998681;28;20451;-69
2021/04/03 02:22:05;;;;;;;5.57;2.90;;;7.90;77.80;;;;;;5017592;28;20530;-68
2021/04/03 02:24:32;;;;;;;3.90;2.70;;;7.90;78.20;;;;;;4998188;28;20459;-67
2021/04/03 02:26:58;;;;;;;3.60;2.90;;;7.90;78.10;;;;;;4986261;28;20457;-68
2021/04/03 02:29:24;;;;;;;5.40;3.00;;;7.90;78.10;;;;;;5014987;28;20216;-68
2021/04/03 02:31:50;;;;;;;4.90;2.67;;;7.90;78.10;;;;;;4993122;28;20460;-67
2021/04/03 02:34:16;;;;;;;4.13;2.40;;;7.90;78.30;;;;;;5012070;28;20218;-69
2021/04/03 02:36:44;;;;;;;2.50;2.30;;;7.80;78.20;;;;;;4970560;28;20459;-69
2021/04/03 02:39:10;;;;;;;5.40;3.20;;;7.80;78.20;;;;;;5003606;28;20555;-69
2021/04/03 02:41:46;;;;;;;4.43;4.00;;;7.80;78.20;;;;;;5008381;28;20564;-69
2021/04/03 02:44:21;;;;;;;1.80;1.43;;;7.80;78.60;;;;;;5013047;28;20239;-69
2021/04/03 02:46:54;;;;;;;3.47;2.63;;;7.80;78.50;;;;;;5019955;28;20466;-68
2021/04/03 02:49:27;;;;;;;8.10;3.20;;;7.80;78.50;;;;;;5026309;28;20456;-68
2021/04/03 02:51:55;;;;;;;2.67;2.47;;;7.90;78.60;;;;;;5023078;28;20496;-69
2021/04/03 02:54:25;;;;;;;5.33;2.83;;;7.90;78.60;;;;;;4994998;28;20449;-68
2021/04/03 02:56:52;;;;;;;3.93;2.07;;;7.90;78.30;;;;;;5001748;28;20450;-68
2021/04/03 02:59:27;;;;;;;3.47;2.73;;;7.90;78.60;;;;;;4967395;28;20505;-68
2021/04/03 03:01:55;;;;;;;3.87;2.40;;;7.80;78.40;;;;;;4997842;28;20442;-68
2021/04/03 03:04:22;;;;;;;3.20;2.20;;;7.80;78.50;;;;;;5025437;28;20535;-68
2021/04/03 03:06:49;;;;;;;5.90;2.33;;;7.80;78.80;;;;;;4978288;28;20491;-69
2021/04/03 03:09:18;;;;;;;4.30;2.47;;;7.80;78.70;;;;;;4988540;28;20451;-68
2021/04/03 03:11:48;;;;;;;4.10;2.67;;;7.80;78.70;;;;;;5010080;28;20448;-68
2021/04/03 03:14:16;;;;;;;2.67;1.97;;;7.90;78.90;;;;;;4995232;28;20453;-68
2021/04/03 03:16:45;;;;;;;6.83;2.63;;;7.90;78.40;;;;;;5028745;28;20959;-67
2021/04/03 03:19:13;;;;;;;5.17;3.23;;;7.90;78.50;;;;;;5030406;28;20444;-69
2021/04/03 03:21:40;;;;;;;4.37;2.80;;;7.90;78.40;;;;;;5013689;28;20502;-67
2021/04/03 03:24:09;;;;;;;3.80;2.90;;;7.90;78.70;;;;;;5030737;28;20474;-69
2021/04/03 03:26:39;;;;;;;2.97;2.67;;;7.90;78.70;;;;;;5000712;28;21147;-68
2021/04/03 03:29:11;;;;;;;4.10;2.83;;;7.90;78.80;;;;;;4999183;28;20498;-70
2021/04/03 03:31:40;;;;;;;2.80;2.37;;;7.90;78.90;;;;;;4987807;28;20448;-68
2021/04/03 03:34:09;;;;;;;3.00;2.40;;;7.80;78.90;;;;;;5008376;28;20532;-69
2021/04/03 03:36:39;;;;;;;5.90;2.83;;;7.80;79.00;;;;;;4990845;28;20453;-68
2021/04/03 03:39:07;;;;;;;5.20;2.63;;;7.80;79.20;;;;;;5001623;28;20444;-68
2021/04/03 03:41:35;;;;;;;2.60;2.40;;;7.80;79.30;;;;;;4977369;28;20982;-69
2021/04/03 03:44:06;;;;;;;3.97;2.57;;;7.80;79.40;;;;;;4966016;28;20484;-68
2021/04/03 03:46:33;;;;;;;5.90;3.73;;;7.80;79.40;;;;;;5007397;28;20472;-68
2021/04/03 03:49:01;;;;;;;8.93;3.87;;;7.80;79.40;;;;;;4997925;28;20528;-68
2021/04/03 03:51:26;;;;;;;3.13;2.23;;;7.80;79.30;;;;;;4997747;28;20559;-69
2021/04/03 03:54:00;;;;;;;5.27;2.83;;;7.80;79.20;;;;;;4997392;28;20443;-67
2021/04/03 03:56:27;;;;;;;4.67;2.83;;;7.80;79.30;;;;;;5029331;28;20462;-68
2021/04/03 03:58:53;;;;;;;3.47;2.20;;;7.80;79.40;;;;;;5013247;28;21382;-68
2021/04/03 04:01:20;;;;;;;3.17;2.57;;;7.80;79.40;;;;;;5029762;28;20520;-68
2021/04/03 04:03:47;;;;;;;3.67;2.77;;;7.80;79.50;;;;;;5028637;28;20538;-68
2021/04/03 04:06:16;;;;;;;4.57;2.47;;;7.80;79.50;;;;;;4993761;28;20500;-69
2021/04/03 04:08:44;;;;;;;4.50;3.23;;;7.70;79.60;;;;;;4993354;28;20448;-69
2021/04/03 04:11:14;;;;;;;4.80;3.03;;;7.70;79.50;;;;;;4994359;28;20471;-67
2021/04/03 04:13:42;;;;;;;3.00;2.50;;;7.70;79.60;;;;;;4989630;28;20509;-68
2021/04/03 04:16:11;;;;;;;3.93;3.10;;;7.70;79.80;;;;;;4993683;28;20463;-68
2021/04/03 04:18:38;;;;;;;5.67;3.00;;;7.70;79.90;;;;;;4993142;28;20455;-68
2021/04/03 04:21:09;;;;;;;5.10;2.63;;;7.70;79.60;;;;;;4975264;28;20457;-68
2021/04/03 04:23:37;;;;;;;4.00;3.00;;;7.70;79.70;;;;;;4990564;28;20476;-68
2021/04/03 04:26:06;;;;;;;4.47;2.83;;;7.70;79.80;;;;;;4997532;28;20534;-68
2021/04/03 04:28:34;;;;;;;5.70;3.20;;;7.70;79.70;;;;;;4995966;28;20555;-69
2021/04/03 04:31:01;;;;;;;8.43;2.97;;;7.70;79.80;;;;;;4992122;28;20786;-67
2021/04/03 04:33:33;;;;;;;3.17;2.53;;;7.70;79.50;;;;;;5009040;28;20444;-68
2021/04/03 04:35:59;;;;;;;7.03;3.43;;;7.80;79.50;;;;;;5009462;28;20448;-68
2021/04/03 04:38:29;;;;;;;5.70;3.20;;;7.70;80.10;;;;;;5011861;28;20467;-68
2021/04/03 04:40:56;;;;;;;5.20;3.57;;;7.70;79.90;;;;;;5009131;28;20456;-67
2021/04/03 04:43:22;;;;;;;4.70;2.97;;;7.70;79.60;;;;;;5002247;28;20916;-67
2021/04/03 04:45:49;;;;;;;7.53;3.03;;;7.70;79.90;;;;;;5028720;28;20486;-69
2021/04/03 04:48:17;;;;;;;3.40;2.73;;;7.80;80.00;;;;;;4984034;28;21128;-68
2021/04/03 04:50:49;;;;;;;5.70;2.87;;;7.80;79.70;;;;;;4995585;28;20482;-67
2021/04/03 04:53:17;;;;;;;7.57;3.37;;;7.80;79.50;;;;;;4996954;28;20455;-69
2021/04/03 04:55:45;;;;;;;5.07;3.57;;;7.80;79.70;;;;;;5008328;28;20464;-68
2021/04/03 04:58:12;;;;;;;7.27;3.77;;;7.80;79.60;;;;;;4995289;28;20454;-67
2021/04/03 05:00:38;;;;;;;15.13;4.40;;;7.70;80.40;;;;;;5021047;28;20947;-67
2021/04/03 05:03:18;;;;;;;7.90;4.67;;;7.70;80.50;;;;;;5000282;28;20455;-67
2021/04/03 05:05:44;;;;;;;13.20;4.43;;;7.60;81.30;;;;;;5012387;28;20462;-68
2021/04/03 05:08:10;;;;;;;4.57;3.13;;;7.60;81.20;;;;;;4995547;28;20466;-68
2021/04/03 05:10:35;;;;;;;5.07;3.80;;;7.60;81.20;;;;;;4995229;28;20722;-69
2021/04/03 05:13:02;;;;;;;5.90;3.73;;;7.60;81.30;;;;;;4996669;28;20598;-68
2021/04/03 05:15:28;;;;;;;5.87;3.80;;;7.60;81.50;;;;;;5027986;28;20220;-67
2021/04/03 05:17:54;;;;;;;5.20;3.20;;;7.60;81.90;;;;;;5011989;28;20441;-68
2021/04/03 05:20:21;;;;;;;6.27;3.60;;;7.60;81.70;;;;;;5009137;28;20221;-68
2021/04/03 05:22:46;;;;;;;5.23;4.20;;;7.60;81.20;;;;;;5028780;28;20233;-68
2021/04/03 05:25:12;;;;;;;3.83;3.43;;;7.60;81.10;;;;;;5012688;28;20451;-67
2021/04/03 05:27:39;;;;;;;5.13;3.70;;;7.60;81.10;;;;;;4995085;28;20742;-68
2021/04/03 05:30:06;;;;;;;5.50;3.30;;;7.60;81.10;;;;;;5028754;28;20530;-68
2021/04/03 05:32:32;;;;;;;9.13;3.83;;;7.70;81.40;;;;;;5012510;28;20451;-70
2021/04/03 05:34:57;;;;;;;5.80;3.80;;;7.60;80.80;;;;;;5012439;28;20461;-68
2021/04/03 05:37:23;;;;;;;6.30;4.03;;;7.70;81.00;;;;;;5012415;28;20599;-68
2021/04/03 05:39:48;;;;;;;7.43;4.20;;;7.60;81.50;;;;;;5011507;28;20233;-69
2021/04/03 05:42:18;;;;;;;4.50;3.80;;;7.70;81.40;;;;;;5012378;28;20248;-68
2021/04/03 05:44:44;;;;;;;5.70;3.33;;;7.60;81.40;;;;;;5023302;28;20362;-67
2021/04/03 05:47:10;;;;;;;5.83;4.23;;;7.60;81.60;;;;;;5028256;28;20956;-67
2021/04/03 05:49:36;;;;;;;8.37;4.47;;;7.60;82.20;;;;;;5027866;28;20227;-68
2021/04/03 05:52:06;;;;;;;5.30;3.80;;;7.60;82.40;;;;;;5011902;28;20463;-68
2021/04/03 05:54:41;;;;;;;7.53;3.90;;;7.60;82.70;;;;;;5010655;28;20452;-67
2021/04/03 05:57:07;;;;;;;5.70;4.00;;;7.60;82.50;;;;;;5015099;28;21006;-68
2021/04/03 05:59:33;;;;;;;7.03;4.00;;;7.60;83.60;;;;;;5009188;28;20467;-68
2021/04/03 06:01:59;;;;;;;6.40;4.37;;;7.60;83.00;;;;;;5043478;28;20215;-69
2021/04/03 06:04:25;;;;;;;6.50;3.70;;;7.60;83.10;;;;;;5035566;28;20462;-69
2021/04/03 06:06:51;;;;;;;11.23;5.90;;;7.60;83.60;;;;;;5048014;28;20593;-68
2021/04/03 06:09:17;;;;;;;6.10;4.20;;;7.60;84.00;;;;;;4997788;28;20218;-67
2021/04/03 06:11:45;;;;;;;6.03;3.67;;;7.60;84.20;;;;;;4991955;28;20217;-68
2021/04/03 06:14:11;;;;;;;9.03;3.40;;;7.70;83.50;;;;;;4990001;28;20583;-68
2021/04/03 06:16:38;;;;;;;4.23;2.80;;;7.60;84.00;;;;;;4998324;28;20542;-68
2021/04/03 06:19:24;;;;;;;6.53;3.60;;;7.70;84.10;;;;;;5011546;28;20690;-69
2021/04/03 06:21:52;;;;;;;5.20;2.30;;;7.60;83.10;;;;;;5024831;28;20905;-69
2021/04/03 06:24:37;;;;;;;2.73;1.87;;;7.60;83.20;;;;;;5014704;28;20458;-68
2021/04/03 06:27:16;;;;;;;2.33;1.83;;;7.60;83.20;;;;;;5013478;28;20486;-68
2021/04/03 06:30:16;;;;;;;3.50;2.23;;;7.60;82.30;;;;;;5022828;28;20451;-68
2021/04/03 06:32:46;;;;;;;4.80;1.77;;;7.60;81.10;;;;;;5032051;28;20534;-68
2021/04/03 06:35:12;;;;;;;1.73;1.37;;;7.60;81.00;;;;;;5008270;28;20545;-69
2021/04/03 06:37:38;;;;;;;5.27;2.00;;;7.60;80.80;;;;;;5032102;28;20566;-67
2021/04/03 06:40:07;;;;;;;2.00;1.47;;;7.50;81.30;;;;;;5031178;28;20452;-68
2021/04/03 06:42:52;;;;;;;1.90;1.57;;;7.60;81.00;;;;;;4998337;28;20470;-67
2021/04/03 06:45:23;;;;;;;1.20;1.10;;;7.50;80.20;;;;;;5022539;28;20484;-69
2021/04/03 06:47:51;;;;;;;3.77;2.20;;;7.50;80.20;;;;;;5026130;28;20566;-69
2021/04/03 06:50:19;;;;;;;1.33;1.20;;;7.50;80.70;;;;;;4997402;28;20535;-68
2021/04/03 06:52:45;;;;;;;2.63;1.53;;;7.50;80.40;;;;;;5013987;28;20487;-68
2021/04/03 06:55:12;;;;;;;1.50;1.33;;;7.50;80.10;;;;;;4998647;28;20506;-68
2021/04/03 06:57:41;;;;;;;5.13;1.47;;;7.60;80.20;;;;;;5030521;28;20350;-67
2021/04/03 07:00:07;;;;;;;6.13;2.73;;;7.60;80.00;;;;;;5009937;28;20539;-69
2021/04/03 07:02:38;;;;;;;4.97;1.70;;;7.60;80.50;;;;;;5000602;28;21554;-68
2021/04/03 07:05:05;;;;;;;2.60;1.30;;;7.60;81.10;;;;;;5023677;28;20538;-67
2021/04/03 07:07:33;;;;;;;3.93;1.53;;;7.70;81.20;;;;;;5020235;28;20469;-68
2021/04/03 07:10:01;;;;;;;5.93;2.00;;;7.70;80.80;;;;;;4999766;28;20484;-68
2021/04/03 07:12:27;;;;;;;3.13;2.93;;;7.70;80.90;;;;;;4981382;28;20987;-67
2021/04/03 07:14:54;;;;;;;4.03;2.03;;;7.70;81.40;;;;;;4986884;28;20994;-68
2021/04/03 07:17:21;;;;;;;5.23;2.17;;;7.80;81.40;;;;;;5003242;28;20480;-69
2021/04/03 07:19:48;;;;;;;2.03;1.40;;;7.80;81.50;;;;;;5029349;28;20534;-67
2021/04/03 07:22:15;;;;;;;2.30;1.47;;;7.80;81.10;;;;;;4997619;28;20448;-69
2021/04/03 07:24:41;;;;;;;3.23;1.47;;;7.80;80.30;;;;;;5024141;28;20455;-68
2021/04/03 07:27:08;;;;;;;7.87;1.83;;;7.80;79.60;;;;;;5013312;28;20857;-67
2021/04/03 07:29:50;;;;;;;2.97;1.40;;;7.80;79.80;;;;;;4990904;28;20547;-68
2021/04/03 07:32:42;;;;;;;3.67;2.07;;;7.90;79.90;;;;;;5014759;28;20493;-68
2021/04/03 07:35:18;;;;;;;1.47;1.37;;;7.90;80.50;;;;;;5009732;28;20538;-68
2021/04/03 07:37:44;;;;;;;5.13;2.23;;;8.00;79.80;;;;;;4989783;28;20451;-67
2021/04/03 07:40:40;;;;;;;1.60;1.40;;;8.00;79.50;;;;;;5013382;28;20466;-67
2021/04/03 07:43:44;;;;;;;3.00;1.30;;;8.20;81.80;;;;;;5011066;28;20475;-68
2021/04/03 07:46:13;;;;;;;0.80;0.77;;;8.30;80.70;;;;;;5024687;28;20467;-68
2021/04/03 07:48:57;;;;;;;4.27;1.40;;;8.30;79.10;;;;;;5011510;28;20460;-69
2021/04/03 07:51:23;;;;;;;2.67;1.30;;;8.20;79.00;;;;;;5012601;28;20460;-68
2021/04/03 07:53:53;;;;;;;1.30;0.93;;;8.20;79.10;;;;;;5010232;28;20503;-68
2021/04/03 07:56:22;;;;;;;4.20;2.20;;;8.40;80.00;;;;;;5010874;28;20291;-69
2021/04/03 07:58:48;;;;;;;1.53;1.07;;;8.30;79.10;;;;;;5030646;28;20473;-69
2021/04/03 08:01:15;;;;;;;1.30;1.10;;;8.30;77.00;;;;;;5028689;28;21002;-68
2021/04/03 08:03:51;;;;;;;5.80;1.20;;;8.30;77.00;;;;;;4995952;28;20542;-69
2021/04/03 08:06:18;;;;;;;1.80;1.27;;;8.40;78.00;;;;;;5011583;28;20479;-68
2021/04/03 08:08:44;;;;;;;0.60;0.60;;;8.40;77.10;;;;;;4993166;28;20509;-68
2021/04/03 08:11:17;;;;;;;1.10;1.00;;;8.40;76.60;;;;;;5026488;28;20931;-68
2021/04/03 08:13:47;;;;;;;6.90;1.57;;;8.30;75.80;;;;;;4993289;28;20229;-67
2021/04/03 08:16:15;;;;;;;2.10;1.50;;;8.30;77.00;;;;;;5013381;28;20455;-69
2021/04/03 08:18:43;;;;;;;3.20;1.30;;;8.30;76.70;;;;;;4998483;28;20526;-68
2021/04/03 08:21:10;;;;;;;0.83;0.70;;;8.40;76.60;;;;;;4981880;28;20568;-68
2021/04/03 08:23:40;;;;;;;1.13;0.70;;;8.30;74.60;;;;;;4961103;28;20471;-70
2021/04/03 08:26:07;;;;;;;3.00;2.33;;;8.30;75.40;;;;;;5027890;28;20462;-69
2021/04/03 08:28:34;;;;;;;1.97;1.57;;;8.40;76.90;;;;;;4996279;28;20451;-68
2021/04/03 08:31:16;;;;;;;3.33;1.23;;;8.60;76.20;;;;;;4993424;28;20467;-67
2021/04/03 08:33:46;;;;;;;2.00;1.40;;;8.60;74.80;;;;;;4994233;28;20569;-68
2021/04/03 08:36:15;;;;;;;3.57;1.67;;;8.60;75.00;;;;;;5009071;28;20460;-68
2021/04/03 08:38:45;;;;;;;3.93;1.03;;;8.60;76.00;;;;;;4978549;28;20445;-68
2021/04/03 08:41:19;;;;;;;6.20;1.23;;;8.80;76.60;;;;;;5012316;28;20463;-69
2021/04/03 08:43:46;;;;;;;2.20;1.10;;;8.80;74.30;;;;;;5011929;28;21033;-68
2021/04/03 08:46:15;;;;;;;4.67;2.53;;;8.90;74.80;;;;;;5009007;28;20452;-68
2021/04/03 08:48:46;;;;;;;4.37;1.63;;;9.00;76.10;;;;;;5028355;28;20582;-69
2021/04/03 08:51:12;;;;;;;1.07;0.90;;;9.00;73.50;;;;;;4996426;28;20960;-68
2021/04/03 08:53:45;;;;;;;3.37;1.23;;;9.00;72.60;;;;;;5000054;28;20463;-67
2021/04/03 08:56:35;;;;;;;6.90;1.47;;;9.00;73.50;;;;;;5011544;28;20859;-68
2021/04/03 08:59:10;;;;;;;4.53;1.30;;;9.00;73.10;;;;;;5018267;28;20455;-68
2021/04/03 09:01:37;;;;;;;3.37;1.03;;;9.10;73.80;;;;;;5029276;28;20462;-68
2021/04/03 09:04:08;;;;;;;2.07;1.07;;;9.30;75.30;;;;;;5009405;28;20436;-68
2021/04/03 09:06:58;;;;;;;2.20;1.63;;;9.40;74.40;;;;;;5021661;28;20554;-68
2021/04/03 09:09:28;;;;;;;1.30;1.17;;;9.50;74.00;;;;;;4984550;28;20527;-69
2021/04/03 09:12:03;;;;;;;1.13;0.97;;;9.60;72.70;;;;;;4981472;28;20935;-68
2021/04/03 09:14:53;;;;;;;10.43;1.80;;;9.60;73.20;;;;;;5007028;28;20498;-69
2021/04/03 09:17:24;;;;;;;2.60;1.50;;;9.70;73.70;;;;;;5009629;28;20585;-69
2021/04/03 09:20:14;;;;;;;1.40;0.90;;;9.70;73.30;;;;;;5011815;28;20447;-68
2021/04/03 09:22:43;;;;;;;1.60;1.50;;;9.80;72.10;;;;;;5023909;28;20451;-68
2021/04/03 09:25:14;;;;;;;1.60;1.40;;;9.80;72.80;;;;;;5009390;28;20452;-68
2021/04/03 09:27:41;;;;;;;3.53;1.20;;;9.90;74.20;;;;;;5011321;28;20463;-68
2021/04/03 09:30:10;;;;;;;2.57;2.13;;;10.00;71.40;;;;;;5011418;28;20463;-68
2021/04/03 09:32:49;;;;;;;2.17;1.33;;;10.10;71.50;;;;;;5015486;28;20456;-68
2021/04/03 09:35:27;;;;;;;1.40;1.30;;;10.20;72.10;;;;;;4999585;28;20457;-68
2021/04/03 09:38:00;;;;;;;1.23;1.13;;;10.30;70.50;;;;;;5022935;28;20456;-68
2021/04/03 09:40:43;;;;;;;2.10;1.07;;;10.50;71.60;;;;;;5013528;28;20482;-69
2021/04/03 09:43:15;;;;;;;1.27;1.17;;;10.40;70.00;;;;;;5030058;28;20458;-69
2021/04/03 09:45:41;;;;;;;1.80;1.40;;;10.30;68.30;;;;;;5008839;28;20447;-68
2021/04/03 09:48:10;;;;;;;2.43;1.67;;;10.20;68.90;;;;;;5031498;28;20471;-69
2021/04/03 09:51:05;;;;;;;1.20;0.93;;;10.40;70.50;;;;;;5013852;28;20447;-69
2021/04/03 09:53:31;;;;;;;4.23;2.13;;;10.70;72.00;;;;;;5008975;28;20449;-68
2021/04/03 09:55:57;;;;;;;3.17;1.73;;;10.80;69.10;;;;;;5008624;28;20477;-69
2021/04/03 09:58:24;;;;;;;1.80;1.33;;;10.80;69.20;;;;;;5007952;28;20229;-68
2021/04/03 10:00:50;;;;;;;2.20;1.30;;;10.90;70.60;;;;;;5008189;28;20440;-68
2021/04/03 10:03:16;;;;;;;1.70;1.33;;;10.90;69.10;;;;;;5017488;28;20436;-68
2021/04/03 10:05:42;;;;;;;4.03;2.30;;;10.80;67.70;;;;;;4995953;28;20485;-69
2021/04/03 10:08:08;;;;;;;1.63;0.90;;;10.90;70.10;;;;;;4992883;28;20220;-69
2021/04/03 10:10:33;;;;;;;4.33;2.10;;;11.10;68.80;;;;;;5013538;28;20220;-68
2021/04/03 10:12:59;;;;;;;5.93;5.33;;;11.20;68.30;;;;;;4999177;28;20573;-68
2021/04/03 10:15:25;;;;;;;2.50;1.77;;;11.30;69.10;;;;;;5005008;28;20213;-69
2021/04/03 10:17:51;;;;;;;3.23;1.53;;;11.40;69.10;;;;;;5010831;28;20221;-68
2021/04/03 10:20:18;;;;;;;1.73;1.30;;;11.30;67.20;;;;;;4975551;28;20825;-68
2021/04/03 10:22:44;;;;;;;3.40;1.80;;;11.30;68.80;;;;;;5024379;28;20463;-69
2021/04/03 10:25:11;;;;;;;1.40;1.10;;;11.40;69.30;;;;;;4974817;28;20521;-69
2021/04/03 10:27:36;;;;;;;3.00;1.17;;;11.50;66.70;;;;;;4985865;28;20544;-68
2021/04/03 10:30:03;;;;;;;2.40;1.13;;;11.50;66.60;;;;;;5013773;28;21000;-69
2021/04/03 10:32:29;;;;;;;2.73;1.60;;;11.40;66.20;;;;;;5031150;28;20224;-68
2021/04/03 10:34:54;;;;;;;2.97;1.57;;;11.40;67.90;;;;;;4995593;28;20463;-69
2021/04/03 10:37:20;;;;;;;1.70;1.60;;;11.50;68.50;;;;;;5005132;28;20247;-70
2021/04/03 10:39:46;;;;;;;5.30;1.67;;;11.60;67.70;;;;;;4985414;28;20221;-68
2021/04/03 10:42:13;;;;;;;1.53;1.23;;;11.60;66.60;;;;;;5015794;28;20285;-68
2021/04/03 10:44:39;;;;;;;1.67;1.57;;;11.60;66.70;;;;;;5030775;28;20315;-68
2021/04/03 10:47:05;;;;;;;1.57;1.37;;;11.60;67.20;;;;;;5024354;28;20567;-69
2021/04/03 10:49:31;;;;;;;1.07;0.90;;;11.50;64.50;;;;;;4987434;28;20224;-69
2021/04/03 10:51:56;;;;;;;1.87;1.17;;;11.50;65.50;;;;;;4990643;28;20216;-69
2021/04/03 10:54:23;;;;;;;2.27;1.27;;;11.50;66.00;;;;;;5019688;28;20955;-69
2021/04/03 10:56:49;;;;;;;3.60;1.63;;;11.70;67.40;;;;;;5025930;28;20295;-69
2021/04/03 10:59:15;;;;;;;1.57;1.20;;;11.90;66.00;;;;;;4991938;28;20460;-68
2021/04/03 11:01:41;;;;;;;2.87;2.00;;;11.90;66.10;;;;;;5006944;28;20985;-68
2021/04/03 11:04:07;;;;;;;1.97;1.10;;;11.90;64.60;;;;;;5029778;28;20223;-68
2021/04/03 11:06:33;;;;;;;2.50;1.30;;;12.00;65.80;;;;;;5022722;28;20495;-69
2021/04/03 11:08:59;;;;;;;4.80;1.70;;;12.10;66.20;;;;;;5029268;28;21000;-68
2021/04/03 11:11:25;;;;;;;2.93;1.63;;;12.20;64.50;;;;;;5029000;28;20458;-70
2021/04/03 11:13:51;;;;;;;2.43;1.80;;;11.90;63.20;;;;;;5002176;28;20573;-68
2021/04/03 11:16:16;;;;;;;2.93;1.63;;;11.80;63.70;;;;;;5019476;28;20290;-68
2021/04/03 11:18:42;;;;;;;2.20;1.27;;;12.20;65.90;;;;;;4989478;28;20235;-69
2021/04/03 11:21:08;;;;;;;2.00;1.27;;;12.20;64.40;;;;;;5023762;28;20216;-69
2021/04/03 11:23:34;;;;;;;1.87;1.73;;;12.20;65.10;;;;;;5026210;28;20575;-68
2021/04/03 11:26:00;;;;;;;5.00;1.93;;;12.30;65.50;;;;;;5010254;28;20535;-69
2021/04/03 11:28:26;;;;;;;3.77;2.50;;;12.40;66.10;;;;;;5036678;28;20607;-69
2021/04/03 11:30:51;;;;;;;2.10;1.50;;;12.40;64.40;;;;;;5016502;28;20212;-67
2021/04/03 11:33:17;;;;;;;1.40;1.30;;;12.30;60.50;;;;;;5013175;28;20231;-69
2021/04/03 11:35:43;;;;;;;1.77;1.00;;;12.20;60.10;;;;;;5029712;28;20238;-68
2021/04/03 11:38:08;;;;;;;2.17;1.10;;;12.10;60.80;;;;;;5010017;28;20321;-68
2021/04/03 11:40:34;;;;;;;1.37;1.27;;;12.30;62.40;;;;;;4991898;28;20228;-69
2021/04/03 11:43:00;;;;;;;1.10;1.00;;;12.60;62.20;;;;;;5009241;28;20224;-69
2021/04/03 11:45:26;;;;;;;2.53;1.37;;;12.80;60.90;;;;;;4992483;28;20228;-69
2021/04/03 11:47:52;;;;;;;3.27;1.23;;;12.60;59.50;;;;;;5006496;28;20225;-68
2021/04/03 11:50:20;;;;;;;1.70;1.60;;;12.60;59.70;;;;;;4997841;28;20990;-69
2021/04/03 11:52:46;;;;;;;1.53;1.13;;;12.60;60.80;;;;;;4990888;28;20453;-69
2021/04/03 11:55:15;;;;;;;1.37;1.10;;;12.70;60.50;;;;;;4992761;28;20448;-68
2021/04/03 11:57:40;;;;;;;1.23;1.10;;;12.90;59.90;;;;;;5019151;28;20455;-69
2021/04/03 12:00:07;;;;;;;0.90;0.73;;;13.00;59.80;;;;;;5028082;28;20593;-68
2021/04/03 12:02:35;;;;;;;1.13;0.93;;;13.10;60.40;;;;;;5028546;28;20299;-69
2021/04/03 12:05:02;;;;;;;1.20;1.00;;;13.20;60.10;;;;;;4992596;28;20607;-68
2021/04/03 12:07:28;;;;;;;1.30;1.13;;;13.20;59.10;;;;;;4999980;28;20478;-68
2021/04/03 12:09:54;;;;;;;1.83;1.60;;;13.40;59.40;;;;;;5027411;28;21078;-68
2021/04/03 12:12:19;;;;;;;1.33;1.10;;;13.50;59.80;;;;;;4995586;28;20689;-70
2021/04/03 12:14:45;;;;;;;1.90;1.20;;;13.40;58.90;;;;;;5009198;28;20221;-70
2021/04/03 12:17:11;;;;;;;1.90;1.00;;;13.20;59.00;;;;;;5012119;28;20221;-69
2021/04/03 12:19:36;;;;;;;1.20;1.10;;;13.30;59.40;;;;;;5027142;28;20749;-69
2021/04/03 12:22:02;;;;;;;1.60;0.80;;;13.10;58.80;;;;;;5008409;28;20647;-68
2021/04/03 12:24:28;;;;;;;2.33;1.17;;;13.20;59.50;;;;;;4991564;28;20300;-69
2021/04/03 12:26:54;;;;;;;2.20;1.67;;;13.20;59.20;;;;;;5001930;28;20226;-70
2021/04/03 12:29:19;;;;;;;1.33;0.90;;;13.00;59.00;;;;;;4964119;28;20696;-70
2021/04/03 12:31:45;;;;;;;1.27;1.17;;;12.80;58.60;;;;;;4989640;28;20267;-68
2021/04/03 12:34:11;;;;;;;0.97;0.90;;;12.70;58.70;;;;;;5004287;28;20217;-68
2021/04/03 12:36:36;;;;;;;2.03;1.10;;;12.70;58.80;;;;;;4997279;28;20231;-69
2021/04/03 12:39:03;;;;;;;2.43;1.20;;;12.80;59.30;;;;;;4993956;28;20216;-71
2021/04/03 12:41:29;;;;;;;2.00;1.03;;;12.90;59.00;;;;;;5003521;28;20271;-69
2021/04/03 12:43:54;;;;;;;2.27;1.00;;;12.90;59.50;;;;;;5024282;28;20456;-71
2021/04/03 12:46:20;;;;;;;2.37;1.40;;;13.10;59.40;;;;;;4995080;28;20239;-68
2021/04/03 12:48:46;;;;;;;3.83;1.50;;;13.20;59.60;;;;;;5004277;28;20217;-69
2021/04/03 12:51:11;;;;;;;2.33;1.50;;;13.20;58.90;;;;;;5003338;28;20213;-68
2021/04/03 12:53:37;;;;;;;1.67;1.00;;;13.30;59.40;;;;;;5020932;28;20236;-68
2021/04/03 12:56:04;;;;;;;0.97;0.87;;;13.20;58.80;;;;;;5029598;28;20226;-69
2021/04/03 12:58:29;;;;;;;1.43;1.33;;;13.40;58.90;;;;;;4995850;28;20456;-68
2021/04/03 13:00:55;;;;;;;2.00;1.07;;;13.60;59.10;;;;;;5008698;28;20519;-69
2021/04/03 13:03:21;;;;;;;2.90;1.50;;;13.60;58.70;;;;;;5007867;28;20217;-68
2021/04/03 13:05:47;;;;;;;1.87;1.70;;;13.70;58.80;;;;;;5027513;28;20244;-68